Wetterdaten: Woche 27.07.09 - 02.08.09 (KW31)
Datum Zeit Temp. A. Feuchte A. Luftdruck Regen Wind Richtung Taupunkt Windchill Windben
27.07.2009 00:00 16,5 C 73 % 1020,3 hPa 0,0 l/m 0,4 km/h N 11,6 C 16,5 C 5,6 km/h
27.07.2009 01:00 15,2 C 78 % 1020,3 hPa 0,0 l/m 0,1 km/h N 11,4 C 15,2 C 1,6 km/h
27.07.2009 02:00 14,4 C 82 % 1019,9 hPa 0,0 l/m 0,1 km/h N 11,4 C 14,4 C 1,6 km/h
27.07.2009 03:00 13,7 C 83 % 1019,7 hPa 0,0 l/m 0,1 km/h N 10,9 C 13,7 C 1,2 km/h
27.07.2009 04:00 12,8 C 87 % 1019,5 hPa 0,0 l/m 0,0 km/h N 10,6 C 12,8 C 2,0 km/h
27.07.2009 05:00 12,5 C 88 % 1019,6 hPa 0,0 l/m 0,1 km/h N 10,5 C 12,5 C 1,6 km/h
27.07.2009 06:00 12,9 C 88 % 1019,6 hPa 0,0 l/m 0,0 km/h N 10,9 C 12,9 C 0,0 km/h
27.07.2009 07:00 15,3 C 80 % 1019,5 hPa 0,0 l/m 0,1 km/h N 11,8 C 15,3 C 1,2 km/h
27.07.2009 08:00 17,2 C 74 % 1019,3 hPa 0,0 l/m 0,3 km/h N 12,5 C 17,2 C 2,0 km/h
27.07.2009 09:00 18,8 C 71 % 1018,8 hPa 0,0 l/m 0,7 km/h O-SO 13,5 C 18,8 C 4,0 km/h
27.07.2009 10:00 20,6 C 67 % 1017,9 hPa 0,0 l/m 0,8 km/h O-SO 14,2 C 20,6 C 5,2 km/h
27.07.2009 11:00 23,1 C 62 % 1017,2 hPa 0,0 l/m 1,4 km/h SO 15,3 C 23,1 C 8,0 km/h
27.07.2009 12:00 24,6 C 55 % 1016,3 hPa 0,0 l/m 1,8 km/h O 15,0 C 24,6 C 7,6 km/h
27.07.2009 13:00 25,9 C 51 % 1015,6 hPa 0,0 l/m 1,7 km/h N-NO 15,0 C 25,9 C 7,2 km/h
27.07.2009 14:00 26,6 C 51 % 1015,0 hPa 0,0 l/m 2,5 km/h O 15,5 C 26,6 C 8,0 km/h
27.07.2009 15:00 27,0 C 50 % 1014,6 hPa 0,0 l/m 2,4 km/h O-SO 15,5 C 27,0 C 8,4 km/h
27.07.2009 16:00 27,4 C 48 % 1014,1 hPa 0,0 l/m 2,2 km/h O-SO 15,4 C 27,4 C 6,8 km/h
27.07.2009 17:00 27,6 C 49 % 1013,3 hPa 0,0 l/m 1,6 km/h O-SO 15,9 C 27,6 C 6,4 km/h
27.07.2009 18:00 27,0 C 48 % 1013,0 hPa 0,0 l/m 1,7 km/h O-NO 15,1 C 27,0 C 10,1 km/h
27.07.2009 19:00 26,1 C 51 % 1012,7 hPa 0,0 l/m 1,0 km/h O 15,0 C 26,1 C 6,8 km/h
27.07.2009 20:00 24,7 C 54 % 1012,5 hPa 0,0 l/m 0,7 km/h N 14,8 C 24,7 C 6,0 km/h
27.07.2009 21:00 21,9 C 66 % 1012,8 hPa 0,0 l/m 0,3 km/h N 15,3 C 21,9 C 3,6 km/h
27.07.2009 22:00 20,7 C 69 % 1012,5 hPa 0,0 l/m 0,2 km/h N 14,7 C 20,7 C 3,6 km/h
27.07.2009 23:00 18,5 C 78 % 1012,4 hPa 0,0 l/m 0,0 km/h N 14,5 C 18,5 C 0,0 km/h
28.07.2009 00:00 17,3 C 82 % 1012,5 hPa 0,0 l/m 0,0 km/h N 14,2 C 17,3 C 0,0 km/h
28.07.2009 01:00 16,2 C 87 % 1012,4 hPa 0,0 l/m 0,0 km/h N 14,0 C 16,2 C 0,0 km/h
28.07.2009 02:00 15,7 C 89 % 1012,6 hPa 0,0 l/m 0,0 km/h N 13,9 C 15,7 C 0,0 km/h
28.07.2009 03:00 15,3 C 91 % 1013,0 hPa 0,0 l/m 0,1 km/h N 13,8 C 15,3 C 1,2 km/h
28.07.2009 04:00 15,7 C 90 % 1013,5 hPa 0,0 l/m 0,1 km/h N 14,0 C 15,7 C 2,8 km/h
28.07.2009 05:00 15,5 C 89 % 1014,4 hPa 0,0 l/m 0,1 km/h N 13,7 C 15,5 C 1,6 km/h
28.07.2009 06:00 17,7 C 85 % 1015,2 hPa 0,0 l/m 0,5 km/h S-SW 15,2 C 17,7 C 2,4 km/h
28.07.2009 07:00 21,0 C 69 % 1015,5 hPa 0,3 l/m 5,5 km/h NW 15,0 C 20,9 C 23,3 km/h
28.07.2009 08:00 21,9 C 63 % 1016,0 hPa 0,0 l/m 8,4 km/h S-SO 14,5 C 21,2 C 30,6 km/h
28.07.2009 09:00 22,4 C 62 % 1016,7 hPa 0,0 l/m 8,4 km/h W 14,8 C 21,8 C 27,4 km/h
28.07.2009 10:00 22,9 C 62 % 1017,4 hPa 0,0 l/m 6,8 km/h N-NW 15,2 C 22,8 C 22,9 km/h
28.07.2009 11:00 22,8 C 65 % 1018,0 hPa 0,0 l/m 6,6 km/h NW 15,8 C 22,5 C 17,3 km/h
28.07.2009 12:00 24,1 C 63 % 1018,4 hPa 0,0 l/m 7,6 km/h NW 16,5 C 23,8 C 19,3 km/h
28.07.2009 13:00 24,2 C 63 % 1018,9 hPa 0,0 l/m 6,1 km/h NO 16,5 C 24,0 C 18,9 km/h
28.07.2009 14:00 23,8 C 62 % 1019,2 hPa 0,0 l/m 5,6 km/h NW 16,0 C 23,7 C 15,7 km/h
28.07.2009 15:00 23,8 C 60 % 1019,0 hPa 0,0 l/m 5,5 km/h NW 15,6 C 23,8 C 13,3 km/h
28.07.2009 16:00 24,4 C 59 % 1018,9 hPa 0,0 l/m 5,8 km/h N-NW 15,9 C 24,4 C 13,7 km/h
28.07.2009 17:00 23,3 C 63 % 1018,9 hPa 0,0 l/m 3,6 km/h NW 15,9 C 23,3 C 9,7 km/h
28.07.2009 18:00 23,7 C 63 % 1018,9 hPa 0,0 l/m 2,3 km/h SW 16,2 C 23,7 C 6,8 km/h
28.07.2009 19:00 22,5 C 66 % 1019,4 hPa 0,0 l/m 2,3 km/h NW 15,8 C 22,5 C 10,1 km/h
28.07.2009 20:00 20,9 C 70 % 1019,9 hPa 0,0 l/m 2,8 km/h NW 15,3 C 20,9 C 11,3 km/h
28.07.2009 21:00 20,2 C 75 % 1020,4 hPa 0,0 l/m 2,2 km/h O 15,6 C 20,2 C 8,9 km/h
28.07.2009 22:00 19,8 C 76 % 1020,7 hPa 0,0 l/m 1,0 km/h N 15,4 C 19,8 C 6,4 km/h
28.07.2009 23:00 19,4 C 76 % 1020,6 hPa 0,0 l/m 0,4 km/h N 15,1 C 19,4 C 5,6 km/h
29.07.2009 00:00 19,0 C 76 % 1020,7 hPa 0,0 l/m 0,3 km/h N 14,6 C 19,0 C 2,8 km/h
29.07.2009 01:00 18,7 C 77 % 1020,7 hPa 0,0 l/m 0,3 km/h N 14,5 C 18,7 C 2,8 km/h
29.07.2009 02:00 18,7 C 76 % 1020,7 hPa 0,0 l/m 0,8 km/h NW 14,4 C 18,7 C 3,6 km/h
29.07.2009 03:00 17,7 C 79 % 1020,8 hPa 0,0 l/m 0,8 km/h N 14,1 C 17,7 C 3,2 km/h
29.07.2009 04:00 16,8 C 82 % 1021,2 hPa 0,0 l/m 0,1 km/h N 13,7 C 16,8 C 1,2 km/h
29.07.2009 05:00 16,3 C 84 % 1021,4 hPa 0,0 l/m 0,0 km/h N 13,6 C 16,3 C 1,2 km/h
29.07.2009 06:00 16,8 C 85 % 1021,6 hPa 0,0 l/m 0,0 km/h N 14,2 C 16,8 C 0,8 km/h
29.07.2009 07:00 18,7 C 79 % 1021,7 hPa 0,0 l/m 0,6 km/h N 15,0 C 18,7 C 4,0 km/h
29.07.2009 08:00 19,6 C 74 % 1021,7 hPa 0,0 l/m 0,8 km/h N-NW 14,7 C 19,6 C 5,6 km/h
29.07.2009 09:00 20,5 C 67 % 1021,5 hPa 0,0 l/m 1,5 km/h N-NO 14,1 C 20,5 C 4,8 km/h
29.07.2009 10:00 21,8 C 62 % 1021,4 hPa 0,0 l/m 1,5 km/h N-NW 14,2 C 21,8 C 6,4 km/h
29.07.2009 11:00 23,8 C 54 % 1021,0 hPa 0,0 l/m 1,4 km/h NO 13,9 C 23,8 C 5,2 km/h
29.07.2009 12:00 24,8 C 49 % 1020,7 hPa 0,0 l/m 2,4 km/h NO 13,2 C 24,8 C 7,6 km/h
29.07.2009 13:00 25,5 C 50 % 1020,0 hPa 0,0 l/m 1,6 km/h N-NW 14,1 C 25,5 C 5,2 km/h
29.07.2009 14:00 25,9 C 45 % 1019,4 hPa 0,0 l/m 1,2 km/h N-NO 13,1 C 25,9 C 5,6 km/h
29.07.2009 15:00 26,5 C 44 % 1018,9 hPa 0,0 l/m 1,6 km/h NO 13,1 C 26,5 C 6,0 km/h
29.07.2009 16:00 26,7 C 44 % 1018,5 hPa 0,0 l/m 1,0 km/h NO 13,5 C 26,7 C 3,6 km/h
29.07.2009 17:00 26,5 C 46 % 1018,3 hPa 0,0 l/m 0,7 km/h O 13,8 C 26,5 C 3,2 km/h
29.07.2009 18:00 25,9 C 45 % 1017,8 hPa 0,0 l/m 0,5 km/h N 13,0 C 25,9 C 3,2 km/h
29.07.2009 19:00 25,2 C 46 % 1017,6 hPa 0,0 l/m 0,2 km/h N 12,8 C 25,2 C 1,6 km/h
29.07.2009 20:00 22,2 C 61 % 1017,5 hPa 0,0 l/m 0,0 km/h N 14,3 C 22,2 C 0,0 km/h
29.07.2009 21:00 20,0 C 71 % 1017,8 hPa 0,0 l/m 0,0 km/h N 14,5 C 20,0 C 0,4 km/h
29.07.2009 22:00 18,5 C 78 % 1017,7 hPa 0,3 l/m 0,0 km/h N 14,5 C 18,5 C 1,2 km/h
29.07.2009 23:00 17,4 C 81 % 1017,5 hPa 0,0 l/m 0,0 km/h N 14,0 C 17,4 C 0,0 km/h
30.07.2009 00:00 16,4 C 84 % 1017,1 hPa 0,0 l/m 0,0 km/h N 13,7 C 16,4 C 0,0 km/h
30.07.2009 01:00 15,7 C 86 % 1016,7 hPa 0,0 l/m 0,0 km/h N 13,4 C 15,7 C 0,0 km/h
30.07.2009 02:00 15,4 C 87 % 1016,3 hPa 0,0 l/m 0,0 km/h N 13,2 C 15,4 C 0,0 km/h
30.07.2009 03:00 14,9 C 88 % 1016,0 hPa 0,0 l/m 0,0 km/h N 12,9 C 14,9 C 0,4 km/h
30.07.2009 04:00 14,8 C 89 % 1015,7 hPa 0,0 l/m 0,0 km/h N 12,9 C 14,8 C 0,0 km/h
30.07.2009 05:00 14,6 C 89 % 1015,8 hPa 0,0 l/m 0,0 km/h N 12,9 C 14,6 C 0,4 km/h
30.07.2009 06:00 15,3 C 88 % 1015,9 hPa 0,0 l/m 0,0 km/h N 13,4 C 15,3 C 0,0 km/h
30.07.2009 07:00 17,6 C 81 % 1015,7 hPa 0,0 l/m 0,0 km/h N 14,3 C 17,6 C 0,0 km/h
30.07.2009 08:00 19,5 C 77 % 1015,7 hPa 0,0 l/m 0,0 km/h N 15,3 C 19,5 C 1,2 km/h
30.07.2009 09:00 21,5 C 73 % 1015,8 hPa 0,0 l/m 0,0 km/h N 16,4 C 21,5 C 1,6 km/h
30.07.2009 10:00 23,6 C 65 % 1016,1 hPa 0,0 l/m 0,2 km/h N 16,6 C 23,6 C 2,0 km/h
30.07.2009 11:00 26,7 C 60 % 1016,3 hPa 0,0 l/m 0,8 km/h N-NW 18,2 C 26,7 C 4,0 km/h
30.07.2009 12:00 29,0 C 51 % 1016,4 hPa 0,0 l/m 4,2 km/h S 17,6 C 29,0 C 12,5 km/h
30.07.2009 13:00 29,3 C 48 % 1016,5 hPa 0,0 l/m 5,6 km/h SO 17,0 C 29,3 C 19,3 km/h
30.07.2009 14:00 29,6 C 48 % 1016,3 hPa 0,0 l/m 6,3 km/h W-SW 17,2 C 29,6 C 22,1 km/h
30.07.2009 15:00 29,6 C 48 % 1016,3 hPa 0,0 l/m 7,2 km/h N 17,3 C 29,6 C 25,4 km/h
30.07.2009 16:00 29,4 C 48 % 1016,5 hPa 0,0 l/m 7,0 km/h SW 17,2 C 29,3 C 24,9 km/h
30.07.2009 17:00 28,3 C 49 % 1016,6 hPa 0,0 l/m 6,1 km/h W-SW 16,5 C 28,2 C 25,8 km/h
30.07.2009 18:00 27,7 C 49 % 1017,0 hPa 0,0 l/m 4,9 km/h SO 15,8 C 27,7 C 20,5 km/h
30.07.2009 19:00 26,5 C 52 % 1017,5 hPa 0,0 l/m 3,2 km/h S-SW 15,8 C 26,5 C 10,9 km/h
30.07.2009 20:00 25,3 C 54 % 1017,9 hPa 0,0 l/m 2,7 km/h S-SO 15,3 C 25,3 C 11,3 km/h
30.07.2009 21:00 24,8 C 54 % 1018,8 hPa 0,0 l/m 2,9 km/h S 14,9 C 24,8 C 14,5 km/h
30.07.2009 22:00 24,5 C 53 % 1019,7 hPa 0,0 l/m 4,6 km/h S 14,3 C 24,5 C 22,1 km/h
30.07.2009 23:00 23,7 C 57 % 1020,3 hPa 0,0 l/m 4,9 km/h SW 14,7 C 23,7 C 18,9 km/h
31.07.2009 00:00 22,0 C 66 % 1020,2 hPa 0,0 l/m 3,8 km/h NW 15,4 C 22,0 C 14,5 km/h
31.07.2009 01:00 20,8 C 71 % 1020,1 hPa 0,0 l/m 2,0 km/h NW 15,3 C 20,8 C 7,6 km/h
31.07.2009 02:00 20,3 C 72 % 1019,9 hPa 0,0 l/m 2,4 km/h N-NW 15,0 C 20,3 C 7,6 km/h
31.07.2009 03:00 20,7 C 65 % 1020,1 hPa 0,0 l/m 2,5 km/h W 13,8 C 20,7 C 12,9 km/h
31.07.2009 04:00 20,1 C 66 % 1020,3 hPa 0,0 l/m 3,9 km/h NW 13,5 C 20,1 C 10,9 km/h
31.07.2009 05:00 19,5 C 66 % 1020,7 hPa 0,0 l/m 2,1 km/h NW 13,0 C 19,5 C 6,8 km/h
31.07.2009 06:00 19,0 C 66 % 1021,2 hPa 0,0 l/m 1,7 km/h NW 12,5 C 19,0 C 5,6 km/h
31.07.2009 07:00 20,0 C 62 % 1021,4 hPa 0,0 l/m 3,0 km/h N-NW 12,4 C 20,0 C 8,9 km/h
31.07.2009 08:00 20,5 C 60 % 1021,5 hPa 0,0 l/m 3,8 km/h N-NW 12,4 C 20,5 C 9,3 km/h
31.07.2009 09:00 21,6 C 57 % 1021,6 hPa 0,0 l/m 4,0 km/h NW 12,8 C 21,6 C 11,3 km/h
31.07.2009 10:00 22,0 C 57 % 1021,8 hPa 0,0 l/m 4,1 km/h N 13,0 C 22,0 C 12,1 km/h
31.07.2009 11:00 23,1 C 53 % 1021,8 hPa 0,0 l/m 4,1 km/h NW 12,9 C 23,1 C 10,1 km/h
31.07.2009 12:00 23,7 C 51 % 1021,4 hPa 0,0 l/m 3,5 km/h NW 12,9 C 23,7 C 9,7 km/h
31.07.2009 13:00 24,3 C 49 % 1020,9 hPa 0,0 l/m 2,5 km/h NW 12,9 C 24,3 C 9,7 km/h
31.07.2009 14:00 24,2 C 50 % 1020,5 hPa 0,0 l/m 2,0 km/h W 13,2 C 24,2 C 8,1 km/h
31.07.2009 15:00 24,9 C 49 % 1020,1 hPa 0,0 l/m 2,7 km/h NW 13,3 C 24,9 C 8,4 km/h
31.07.2009 16:00 25,0 C 46 % 1019,6 hPa 0,0 l/m 2,8 km/h N-NW 12,5 C 25,0 C 8,4 km/h
31.07.2009 17:00 24,6 C 46 % 1019,1 hPa 0,0 l/m 2,2 km/h N-NW 12,0 C 24,6 C 6,8 km/h
31.07.2009 18:00 23,7 C 49 % 1019,1 hPa 0,0 l/m 2,2 km/h NW 12,4 C 23,7 C 6,4 km/h
31.07.2009 19:00 23,1 C 52 % 1018,9 hPa 0,0 l/m 0,5 km/h N 12,8 C 23,1 C 3,2 km/h
31.07.2009 20:00 22,1 C 58 % 1018,8 hPa 0,0 l/m 0,2 km/h N 13,5 C 22,1 C 3,2 km/h
31.07.2009 21:00 20,8 C 66 % 1019,0 hPa 0,0 l/m 0,1 km/h N 14,2 C 20,8 C 2,4 km/h
31.07.2009 22:00 19,5 C 71 % 1018,8 hPa 0,0 l/m 0,1 km/h N 14,1 C 19,5 C 3,2 km/h
31.07.2009 23:00 19,3 C 70 % 1018,5 hPa 0,0 l/m 0,2 km/h N 13,7 C 19,3 C 2,8 km/h
01.08.2009 00:00 18,7 C 72 % 1018,4 hPa 0,0 l/m 0,1 km/h N 13,6 C 18,7 C 1,2 km/h
01.08.2009 01:00 17,6 C 77 % 1018,4 hPa 0,0 l/m 0,0 km/h N 13,5 C 17,6 C 0,4 km/h
01.08.2009 02:00 17,0 C 76 % 1018,1 hPa 0,0 l/m 0,0 km/h N 12,8 C 17,0 C 0,8 km/h
01.08.2009 03:00 16,3 C 78 % 1018,0 hPa 0,0 l/m 0,1 km/h N 12,5 C 16,3 C 2,0 km/h
01.08.2009 04:00 15,8 C 81 % 1017,8 hPa 0,0 l/m 0,0 km/h N 12,4 C 15,8 C 0,0 km/h
01.08.2009 05:00 15,8 C 80 % 1017,7 hPa 0,0 l/m 0,0 km/h N 12,4 C 15,8 C 0,8 km/h
01.08.2009 06:00 16,0 C 79 % 1017,8 hPa 0,0 l/m 0,1 km/h N 12,3 C 16,0 C 1,6 km/h
01.08.2009 07:00 17,1 C 77 % 1017,9 hPa 0,0 l/m 0,0 km/h N 13,0 C 17,1 C 0,0 km/h
01.08.2009 08:00 19,2 C 67 % 1017,7 hPa 0,0 l/m 0,2 km/h N 13,0 C 19,2 C 2,0 km/h
01.08.2009 09:00 20,7 C 63 % 1017,6 hPa 0,0 l/m 0,2 km/h N 13,3 C 20,7 C 2,4 km/h
01.08.2009 10:00 22,2 C 60 % 1017,1 hPa 0,0 l/m 0,6 km/h NO 13,9 C 22,2 C 3,6 km/h
01.08.2009 11:00 24,2 C 55 % 1016,7 hPa 0,0 l/m 1,2 km/h W-SW 14,5 C 24,2 C 6,8 km/h
01.08.2009 12:00 26,0 C 51 % 1015,8 hPa 0,0 l/m 1,3 km/h O 15,1 C 26,0 C 6,4 km/h
01.08.2009 13:00 27,3 C 48 % 1015,2 hPa 0,0 l/m 1,9 km/h S-SO 15,4 C 27,3 C 9,6 km/h
01.08.2009 14:00 27,3 C 52 % 1014,5 hPa 0,0 l/m 2,2 km/h O-SO 16,4 C 27,3 C 6,8 km/h
01.08.2009 15:00 28,8 C 47 % 1013,5 hPa 0,0 l/m 2,5 km/h O 16,3 C 28,8 C 8,4 km/h
01.08.2009 16:00 29,2 C 47 % 1013,0 hPa 0,0 l/m 2,5 km/h O 16,7 C 29,2 C 9,3 km/h
01.08.2009 17:00 29,9 C 46 % 1012,4 hPa 0,0 l/m 1,2 km/h O-SO 17,1 C 29,9 C 4,8 km/h
01.08.2009 18:00 29,1 C 49 % 1012,2 hPa 0,0 l/m 1,4 km/h N 17,2 C 29,1 C 7,2 km/h
01.08.2009 19:00 27,9 C 53 % 1012,0 hPa 0,0 l/m 0,3 km/h N 17,5 C 27,9 C 4,0 km/h
01.08.2009 20:00 26,1 C 60 % 1011,9 hPa 0,0 l/m 0,0 km/h N 17,7 C 26,1 C 1,2 km/h
01.08.2009 21:00 23,3 C 70 % 1012,2 hPa 0,0 l/m 0,0 km/h N 17,5 C 23,3 C 1,2 km/h
01.08.2009 22:00 20,6 C 81 % 1012,3 hPa 0,0 l/m 0,0 km/h N 17,3 C 20,6 C 0,0 km/h
01.08.2009 23:00 19,5 C 86 % 1012,0 hPa 0,0 l/m 0,0 km/h N 17,1 C 19,5 C 0,0 km/h
02.08.2009 00:00 19,4 C 86 % 1011,8 hPa 0,0 l/m 0,0 km/h N 17,0 C 19,4 C 1,6 km/h
02.08.2009 01:00 21,8 C 76 % 1011,3 hPa 0,0 l/m 1,1 km/h S 17,3 C 21,8 C 7,6 km/h
02.08.2009 02:00 22,7 C 71 % 1010,5 hPa 0,0 l/m 1,2 km/h SW 17,1 C 22,7 C 5,6 km/h
02.08.2009 03:00 20,4 C 79 % 1010,3 hPa 0,0 l/m 0,0 km/h N 16,7 C 20,4 C 0,4 km/h
02.08.2009 04:00 19,2 C 84 % 1010,0 hPa 0,0 l/m 0,0 km/h N 16,4 C 19,2 C 0,0 km/h
02.08.2009 05:00 19,2 C 83 % 1009,8 hPa 0,0 l/m 0,0 km/h N 16,3 C 19,2 C 0,0 km/h
02.08.2009 06:00 18,7 C 87 % 1009,8 hPa 0,0 l/m 0,0 km/h N 16,5 C 18,7 C 0,0 km/h
02.08.2009 07:00 20,6 C 82 % 1009,6 hPa 0,0 l/m 0,0 km/h N 17,4 C 20,6 C 0,0 km/h
02.08.2009 08:00 22,7 C 76 % 1009,3 hPa 0,0 l/m 0,0 km/h N 18,2 C 22,7 C 0,0 km/h
02.08.2009 09:00 24,5 C 72 % 1009,1 hPa 0,0 l/m 0,0 km/h N 19,0 C 24,5 C 0,0 km/h
02.08.2009 10:00 26,2 C 64 % 1008,8 hPa 0,0 l/m 0,3 km/h SW 18,9 C 26,2 C 2,4 km/h
02.08.2009 11:00 28,5 C 60 % 1008,4 hPa 0,0 l/m 0,9 km/h N 19,8 C 28,5 C 4,4 km/h
02.08.2009 12:00 30,8 C 53 % 1007,8 hPa 0,0 l/m 1,2 km/h S-SW 20,0 C 30,8 C 6,0 km/h
02.08.2009 13:00 32,2 C 43 % 1007,2 hPa 0,0 l/m 1,4 km/h N-NO 17,8 C 32,2 C 6,0 km/h
02.08.2009 14:00 33,7 C 39 % 1006,7 hPa 0,0 l/m 1,7 km/h SW 17,7 C 33,7 C 8,8 km/h
02.08.2009 15:00 34,8 C 35 % 1006,5 hPa 0,0 l/m 3,7 km/h S-SW 17,2 C 34,8 C 16,1 km/h
02.08.2009 16:00 33,7 C 41 % 1006,3 hPa 0,0 l/m 2,9 km/h NW 18,4 C 33,7 C 10,5 km/h
02.08.2009 17:00 31,9 C 51 % 1006,1 hPa 0,0 l/m 2,7 km/h S 20,3 C 31,9 C 9,6 km/h
02.08.2009 18:00 30,9 C 50 % 1006,5 hPa 0,0 l/m 1,8 km/h S-SO 19,1 C 30,9 C 8,8 km/h
02.08.2009 19:00 29,5 C 53 % 1006,5 hPa 0,0 l/m 1,1 km/h W-SW 18,7 C 29,5 C 6,0 km/h
02.08.2009 20:00 27,2 C 62 % 1006,6 hPa 0,0 l/m 0,6 km/h W-SW 19,2 C 27,2 C 5,2 km/h
02.08.2009 21:00 25,3 C 61 % 1008,4 hPa 0,0 l/m 6,0 km/h S 17,2 C 24,9 C 21,7 km/h
02.08.2009 22:00 22,4 C 68 % 1010,7 hPa 0,0 l/m 12,1 km/h SW 16,1 C 20,8 C 38,6 km/h
02.08.2009 23:00 21,4 C 69 % 1011,1 hPa 0,0 l/m 9,9 km/h S 15,4 C 20,2 C 34,2 km/h
Min-Datum _ 27.07.09 02.08.09 02.08.09 - 27.07.09 - 27.07.09 27.07.09 27.07.09
_ Min-Zeit 05:30 15:15 17:15 - 01:30 - 05:30 05:30 01:30
Minimum _ 12,3 C 34 % 1006,0 hPa - 0,0 km/h - 10,4 C 12,3 C 0,0 km/h
Max-Datum _ 02.08.09 28.07.09 31.07.09 28.07.09 02.08.09 - 02.08.09 02.08.09 02.08.09
_ Max-Zeit 15:15 03:30 11:00 07:00 22:00 - 17:30 15:15 22:30
Maximum _ 35,1 C 91 % 1022,0 hPa 0,3 l/m 14,8 km/h
SW
- 21,0 C 35,0 C 43,5 km/h
SW
Durchschnitt _ 22,1 C 65 % 1016,4 hPa #0,6 l/m 1,8 km/h NW 14,9 C 22,1 C 6,9 km/h